Capt Boo — WDC3044 — position and weather

sailwx.info

Track history (hours):
 
Tides and Currents Weather Stations Pressure Air Temp Water Temp Dewpoint Dewpoint Depression Visibility Wind Speed Wind Dir Waves Ship Positions

Capt Boo

Owner: CNETRAL BOAT RENTALS, BERWICK, LA. More information available from US FCC via Universal Licensing System and Coast Guard Vessel Documentation Center.

Last reported at 2018-Jul-22 11:00 UTC. Time now 2018-Jul-23 14:53 UTC.
Position N 29°23' W 089°31'.

Length 6 m; draft 2.3 m.

Type: Towing. MMSI: 367001950.

Date/timePositionNaut miles runAvg speedWind from/ knotsBaromVisibWave heightAir tempDewpointWater temp
2018-Jul-22 11:00N 29°23' W 089°31'1 0.8
2018-Jul-22 10:14N 29°24' W 089°31'1 2.5
2018-Jul-22 09:48N 29°24' W 089°30'2 3.9
2018-Jul-22 09:16N 29°25' W 089°28'2 5.5
2018-Jul-22 08:56N 29°25' W 089°26'3 6.0
2018-Jul-22 08:29N 29°25' W 089°23'8 0.5
2018-Jul-21 17:51N 29°17' W 089°21'2 5.1
2018-Jul-21 17:30N 29°18' W 089°20'11 2.1
2018-Jul-21 12:09N 29°23' W 089°31'0 0.4
2018-Jul-21 12:00N 29°23' W 089°31'0 0.0
2018-Jul-21 09:44N 29°23' W 089°31'0 0.0
2018-Jul-20 12:45N 29°23' W 089°31'4 3.1
2018-Jul-20 11:36N 29°25' W 089°28'1 5.2
2018-Jul-20 11:24N 29°25' W 089°27'  
2018-Jul-15 23:14N 29°35' W 090°37'1 2.9
2018-Jul-15 23:00N 29°35' W 090°38'2 3.5
2018-Jul-15 22:29N 29°36' W 090°39'2 3.8
2018-Jul-15 22:00N 29°37' W 090°41'1 1.7
2018-Jul-15 21:30N 29°37' W 090°42'0 0.4
2018-Jul-15 21:00N 29°37' W 090°43'0 0.1
2018-Jul-15 20:28N 29°37' W 090°43'0 0.1
2018-Jul-15 20:00N 29°37' W 090°43'0 0.0
2018-Jul-15 19:31N 29°37' W 090°43'0 0.0
2018-Jul-15 19:00N 29°37' W 090°43'2 3.9
2018-Jul-15 18:30N 29°35' W 090°43'  
2018-Jul-13 12:58N 29°56' W 091°50'58 3.9
2018-Jul-12 22:04N 29°32' W 090°49'1 8.1
2018-Jul-12 21:59N 29°32' W 090°48'3 6.7
2018-Jul-12 21:30N 29°34' W 090°45'2 3.3
2018-Jul-12 21:00N 29°34' W 090°43'4 8.1
2018-Jul-12 20:30N 29°30' W 090°43'  
Track history (hours):
 
Tides and Currents Weather Stations Pressure Air Temp Water Temp Dewpoint Dewpoint Depression Visibility Wind Speed Wind Dir Waves Ship Positions

Capt Boo

Owner: CNETRAL BOAT RENTALS, BERWICK, LA. More information available from US FCC via Universal Licensing System and Coast Guard Vessel Documentation Center.

Last reported at 2018-Jul-22 11:00 UTC. Time now 2018-Jul-23 14:53 UTC.
Position N 29°23' W 089°31'.

Length 6 m; draft 2.3 m.

Type: Towing. MMSI: 367001950.

Date/timePositionNaut miles runAvg speedWind from/ knotsBaromVisibWave heightAir tempDewpointWater temp
2018-Jul-22 11:00N 29°23' W 089°31'1 0.8
2018-Jul-22 10:14N 29°24' W 089°31'1 2.5
2018-Jul-22 09:48N 29°24' W 089°30'2 3.9
2018-Jul-22 09:16N 29°25' W 089°28'2 5.5
2018-Jul-22 08:56N 29°25' W 089°26'3 6.0
2018-Jul-22 08:29N 29°25' W 089°23'8 0.5
2018-Jul-21 17:51N 29°17' W 089°21'2 5.1
2018-Jul-21 17:30N 29°18' W 089°20'11 2.1
2018-Jul-21 12:09N 29°23' W 089°31'0 0.4
2018-Jul-21 12:00N 29°23' W 089°31'0 0.0
2018-Jul-21 09:44N 29°23' W 089°31'0 0.0
2018-Jul-20 12:45N 29°23' W 089°31'4 3.1
2018-Jul-20 11:36N 29°25' W 089°28'1 5.2
2018-Jul-20 11:24N 29°25' W 089°27'  
2018-Jul-15 23:14N 29°35' W 090°37'1 2.9
2018-Jul-15 23:00N 29°35' W 090°38'2 3.5
2018-Jul-15 22:29N 29°36' W 090°39'2 3.8
2018-Jul-15 22:00N 29°37' W 090°41'1 1.7
2018-Jul-15 21:30N 29°37' W 090°42'0 0.4
2018-Jul-15 21:00N 29°37' W 090°43'0 0.1
2018-Jul-15 20:28N 29°37' W 090°43'0 0.1
2018-Jul-15 20:00N 29°37' W 090°43'0 0.0
2018-Jul-15 19:31N 29°37' W 090°43'0 0.0
2018-Jul-15 19:00N 29°37' W 090°43'2 3.9
2018-Jul-15 18:30N 29°35' W 090°43'  
2018-Jul-13 12:58N 29°56' W 091°50'58 3.9
2018-Jul-12 22:04N 29°32' W 090°49'1 8.1
2018-Jul-12 21:59N 29°32' W 090°48'3 6.7
2018-Jul-12 21:30N 29°34' W 090°45'2 3.3
2018-Jul-12 21:00N 29°34' W 090°43'4 8.1
2018-Jul-12 20:30N 29°30' W 090°43'  

Dump ship's entire track history